sensor_id;sensor_type;location;lat;lon;timestamp;P1;durP1;ratioP1;P2;durP2;ratioP2
26435;SDS011;15351;52.408;16.826;2024-03-08T00:00:34;69.80;;;38.90;;
26435;SDS011;15351;52.408;16.826;2024-03-08T00:03:24;69.50;;;39.20;;
26435;SDS011;15351;52.408;16.826;2024-03-08T00:05:51;66.50;;;37.10;;
26435;SDS011;15351;52.408;16.826;2024-03-08T00:08:18;67.10;;;38.30;;
26435;SDS011;15351;52.408;16.826;2024-03-08T00:10:44;65.80;;;37.60;;
26435;SDS011;15351;52.408;16.826;2024-03-08T00:13:11;63.10;;;37.00;;
26435;SDS011;15351;52.408;16.826;2024-03-08T00:15:38;60.70;;;36.30;;
26435;SDS011;15351;52.408;16.826;2024-03-08T00:18:05;67.20;;;36.20;;
26435;SDS011;15351;52.408;16.826;2024-03-08T00:20:32;63.20;;;35.90;;
26435;SDS011;15351;52.408;16.826;2024-03-08T00:22:59;62.70;;;36.20;;
26435;SDS011;15351;52.408;16.826;2024-03-08T00:25:26;67.80;;;36.90;;
26435;SDS011;15351;52.408;16.826;2024-03-08T00:27:53;65.10;;;36.60;;
26435;SDS011;15351;52.408;16.826;2024-03-08T00:30:22;65.40;;;36.70;;
26435;SDS011;15351;52.408;16.826;2024-03-08T00:32:51;66.40;;;35.80;;
26435;SDS011;15351;52.408;16.826;2024-03-08T00:35:18;62.70;;;34.40;;
26435;SDS011;15351;52.408;16.826;2024-03-08T00:37:44;67.60;;;36.30;;
26435;SDS011;15351;52.408;16.826;2024-03-08T00:40:14;66.60;;;36.20;;
26435;SDS011;15351;52.408;16.826;2024-03-08T00:42:41;70.40;;;37.00;;
26435;SDS011;15351;52.408;16.826;2024-03-08T00:45:10;64.50;;;35.30;;
26435;SDS011;15351;52.408;16.826;2024-03-08T00:47:37;70.30;;;36.20;;
26435;SDS011;15351;52.408;16.826;2024-03-08T00:50:03;69.10;;;35.10;;
26435;SDS011;15351;52.408;16.826;2024-03-08T00:52:31;67.90;;;36.60;;
26435;SDS011;15351;52.408;16.826;2024-03-08T00:54:57;63.60;;;34.90;;
26435;SDS011;15351;52.408;16.826;2024-03-08T00:57:24;68.40;;;36.30;;
26435;SDS011;15351;52.408;16.826;2024-03-08T00:59:51;66.40;;;36.20;;
26435;SDS011;15351;52.408;16.826;2024-03-08T01:02:19;65.40;;;35.10;;
26435;SDS011;15351;52.408;16.826;2024-03-08T01:04:47;69.40;;;36.30;;
26435;SDS011;15351;52.408;16.826;2024-03-08T01:07:14;68.60;;;36.30;;
26435;SDS011;15351;52.408;16.826;2024-03-08T01:09:41;63.90;;;36.40;;
26435;SDS011;15351;52.408;16.826;2024-03-08T01:12:08;63.70;;;36.20;;
26435;SDS011;15351;52.408;16.826;2024-03-08T01:14:37;64.80;;;36.20;;
26435;SDS011;15351;52.408;16.826;2024-03-08T01:17:03;65.40;;;36.30;;
26435;SDS011;15351;52.408;16.826;2024-03-08T01:19:30;62.80;;;35.90;;
26435;SDS011;15351;52.408;16.826;2024-03-08T01:21:59;66.10;;;36.20;;
26435;SDS011;15351;52.408;16.826;2024-03-08T01:24:26;62.00;;;35.30;;
26435;SDS011;15351;52.408;16.826;2024-03-08T01:26:53;61.60;;;35.60;;
26435;SDS011;15351;52.408;16.826;2024-03-08T01:29:20;62.70;;;34.60;;
26435;SDS011;15351;52.408;16.826;2024-03-08T01:31:46;65.20;;;35.30;;
26435;SDS011;15351;52.408;16.826;2024-03-08T01:34:13;58.00;;;34.40;;
26435;SDS011;15351;52.408;16.826;2024-03-08T01:36:40;62.40;;;35.20;;
26435;SDS011;15351;52.408;16.826;2024-03-08T01:39:06;55.60;;;33.80;;
26435;SDS011;15351;52.408;16.826;2024-03-08T01:41:40;54.80;;;33.30;;
26435;SDS011;15351;52.408;16.826;2024-03-08T01:44:08;55.80;;;33.70;;
26435;SDS011;15351;52.408;16.826;2024-03-08T01:46:35;59.10;;;35.00;;
26435;SDS011;15351;52.408;16.826;2024-03-08T01:49:02;57.50;;;33.80;;
26435;SDS011;15351;52.408;16.826;2024-03-08T01:51:29;57.30;;;34.00;;
26435;SDS011;15351;52.408;16.826;2024-03-08T01:53:57;57.80;;;34.20;;
26435;SDS011;15351;52.408;16.826;2024-03-08T01:56:24;56.40;;;33.80;;
26435;SDS011;15351;52.408;16.826;2024-03-08T01:58:51;53.70;;;32.30;;
26435;SDS011;15351;52.408;16.826;2024-03-08T02:01:19;56.20;;;33.90;;
26435;SDS011;15351;52.408;16.826;2024-03-08T02:03:46;53.60;;;33.60;;
26435;SDS011;15351;52.408;16.826;2024-03-08T02:06:13;54.50;;;34.00;;
26435;SDS011;15351;52.408;16.826;2024-03-08T02:08:43;57.90;;;34.30;;
26435;SDS011;15351;52.408;16.826;2024-03-08T02:11:11;55.00;;;32.60;;
26435;SDS011;15351;52.408;16.826;2024-03-08T02:13:39;54.70;;;32.50;;
26435;SDS011;15351;52.408;16.826;2024-03-08T02:16:06;54.90;;;33.30;;
26435;SDS011;15351;52.408;16.826;2024-03-08T02:18:34;53.50;;;32.50;;
26435;SDS011;15351;52.408;16.826;2024-03-08T02:21:02;57.80;;;32.80;;
26435;SDS011;15351;52.408;16.826;2024-03-08T02:23:30;55.90;;;32.70;;
26435;SDS011;15351;52.408;16.826;2024-03-08T02:25:58;56.40;;;33.50;;
26435;SDS011;15351;52.408;16.826;2024-03-08T02:28:28;58.60;;;33.00;;
26435;SDS011;15351;52.408;16.826;2024-03-08T02:30:55;57.60;;;34.40;;
26435;SDS011;15351;52.408;16.826;2024-03-08T02:33:22;58.00;;;33.70;;
26435;SDS011;15351;52.408;16.826;2024-03-08T02:35:50;55.50;;;33.20;;
26435;SDS011;15351;52.408;16.826;2024-03-08T02:38:20;58.40;;;34.70;;
26435;SDS011;15351;52.408;16.826;2024-03-08T02:40:49;54.00;;;33.40;;
26435;SDS011;15351;52.408;16.826;2024-03-08T02:43:17;55.40;;;34.40;;
26435;SDS011;15351;52.408;16.826;2024-03-08T02:45:45;57.60;;;35.20;;
26435;SDS011;15351;52.408;16.826;2024-03-08T02:48:13;58.40;;;35.20;;
26435;SDS011;15351;52.408;16.826;2024-03-08T02:50:40;58.40;;;34.00;;
26435;SDS011;15351;52.408;16.826;2024-03-08T02:53:08;60.60;;;33.70;;
26435;SDS011;15351;52.408;16.826;2024-03-08T02:55:36;55.90;;;34.00;;
26435;SDS011;15351;52.408;16.826;2024-03-08T02:58:04;55.60;;;34.10;;
26435;SDS011;15351;52.408;16.826;2024-03-08T03:00:31;55.50;;;33.50;;
26435;SDS011;15351;52.408;16.826;2024-03-08T03:02:57;52.40;;;32.80;;
26435;SDS011;15351;52.408;16.826;2024-03-08T03:05:24;55.00;;;32.60;;
26435;SDS011;15351;52.408;16.826;2024-03-08T03:07:51;54.60;;;32.90;;
26435;SDS011;15351;52.408;16.826;2024-03-08T03:10:18;58.60;;;32.30;;
26435;SDS011;15351;52.408;16.826;2024-03-08T03:12:45;53.70;;;32.90;;
26435;SDS011;15351;52.408;16.826;2024-03-08T03:15:12;56.40;;;32.50;;
26435;SDS011;15351;52.408;16.826;2024-03-08T03:17:39;55.80;;;31.80;;
26435;SDS011;15351;52.408;16.826;2024-03-08T03:20:07;53.80;;;32.00;;
26435;SDS011;15351;52.408;16.826;2024-03-08T03:22:40;52.50;;;32.20;;
26435;SDS011;15351;52.408;16.826;2024-03-08T03:25:07;55.20;;;31.00;;
26435;SDS011;15351;52.408;16.826;2024-03-08T03:27:36;56.60;;;31.80;;
26435;SDS011;15351;52.408;16.826;2024-03-08T03:30:03;52.70;;;31.50;;
26435;SDS011;15351;52.408;16.826;2024-03-08T03:32:48;55.00;;;31.70;;
26435;SDS011;15351;52.408;16.826;2024-03-08T03:35:17;51.00;;;31.20;;
26435;SDS011;15351;52.408;16.826;2024-03-08T03:37:47;51.90;;;32.00;;
26435;SDS011;15351;52.408;16.826;2024-03-08T03:40:33;52.80;;;31.90;;
26435;SDS011;15351;52.408;16.826;2024-03-08T03:43:00;56.80;;;32.70;;
26435;SDS011;15351;52.408;16.826;2024-03-08T03:45:29;53.70;;;31.40;;
26435;SDS011;15351;52.408;16.826;2024-03-08T03:48:00;54.30;;;30.80;;
26435;SDS011;15351;52.408;16.826;2024-03-08T03:50:30;52.90;;;31.10;;
26435;SDS011;15351;52.408;16.826;2024-03-08T03:52:57;50.50;;;31.20;;
26435;SDS011;15351;52.408;16.826;2024-03-08T03:55:24;52.30;;;30.60;;
26435;SDS011;15351;52.408;16.826;2024-03-08T03:57:51;52.90;;;31.40;;
26435;SDS011;15351;52.408;16.826;2024-03-08T04:00:18;56.50;;;31.50;;
26435;SDS011;15351;52.408;16.826;2024-03-08T04:03:03;53.20;;;30.20;;
26435;SDS011;15351;52.408;16.826;2024-03-08T04:05:43;49.90;;;30.20;;
26435;SDS011;15351;52.408;16.826;2024-03-08T04:08:10;49.50;;;31.10;;
26435;SDS011;15351;52.408;16.826;2024-03-08T04:10:37;49.80;;;30.50;;
26435;SDS011;15351;52.408;16.826;2024-03-08T04:13:04;52.90;;;30.80;;
26435;SDS011;15351;52.408;16.826;2024-03-08T04:15:32;48.20;;;29.80;;
26435;SDS011;15351;52.408;16.826;2024-03-08T04:17:58;50.30;;;29.80;;
26435;SDS011;15351;52.408;16.826;2024-03-08T04:20:36;48.40;;;29.20;;
26435;SDS011;15351;52.408;16.826;2024-03-08T04:23:05;51.40;;;29.20;;
26435;SDS011;15351;52.408;16.826;2024-03-08T04:25:32;52.10;;;29.90;;
26435;SDS011;15351;52.408;16.826;2024-03-08T04:27:59;47.90;;;29.00;;
26435;SDS011;15351;52.408;16.826;2024-03-08T04:30:26;49.00;;;29.30;;
26435;SDS011;15351;52.408;16.826;2024-03-08T04:32:54;49.90;;;29.70;;
26435;SDS011;15351;52.408;16.826;2024-03-08T04:35:21;49.70;;;29.50;;
26435;SDS011;15351;52.408;16.826;2024-03-08T04:37:47;48.50;;;29.90;;
26435;SDS011;15351;52.408;16.826;2024-03-08T04:43:03;48.70;;;30.50;;
26435;SDS011;15351;52.408;16.826;2024-03-08T04:45:30;45.30;;;28.90;;
26435;SDS011;15351;52.408;16.826;2024-03-08T04:47:56;49.30;;;29.60;;
26435;SDS011;15351;52.408;16.826;2024-03-08T04:50:24;49.90;;;30.50;;
26435;SDS011;15351;52.408;16.826;2024-03-08T04:52:50;50.00;;;30.10;;
26435;SDS011;15351;52.408;16.826;2024-03-08T04:55:17;51.50;;;30.50;;
26435;SDS011;15351;52.408;16.826;2024-03-08T04:57:47;49.40;;;29.10;;
26435;SDS011;15351;52.408;16.826;2024-03-08T05:00:15;44.70;;;29.10;;
26435;SDS011;15351;52.408;16.826;2024-03-08T05:02:42;51.60;;;29.20;;
26435;SDS011;15351;52.408;16.826;2024-03-08T05:05:09;49.60;;;30.00;;
26435;SDS011;15351;52.408;16.826;2024-03-08T05:07:39;48.60;;;29.90;;
26435;SDS011;15351;52.408;16.826;2024-03-08T05:10:06;46.40;;;29.90;;
26435;SDS011;15351;52.408;16.826;2024-03-08T05:12:33;48.70;;;30.60;;
26435;SDS011;15351;52.408;16.826;2024-03-08T05:15:00;52.20;;;31.00;;
26435;SDS011;15351;52.408;16.826;2024-03-08T05:17:27;51.80;;;30.30;;
26435;SDS011;15351;52.408;16.826;2024-03-08T05:19:54;58.20;;;30.30;;
26435;SDS011;15351;52.408;16.826;2024-03-08T05:22:20;57.70;;;31.90;;
26435;SDS011;15351;52.408;16.826;2024-03-08T05:24:47;51.00;;;31.60;;
26435;SDS011;15351;52.408;16.826;2024-03-08T05:27:14;51.10;;;31.50;;
26435;SDS011;15351;52.408;16.826;2024-03-08T05:29:40;53.30;;;30.90;;
26435;SDS011;15351;52.408;16.826;2024-03-08T05:32:07;58.20;;;32.10;;
26435;SDS011;15351;52.408;16.826;2024-03-08T05:34:34;57.40;;;30.40;;
26435;SDS011;15351;52.408;16.826;2024-03-08T05:37:00;53.20;;;31.40;;
26435;SDS011;15351;52.408;16.826;2024-03-08T05:39:28;55.50;;;31.40;;
26435;SDS011;15351;52.408;16.826;2024-03-08T05:41:54;52.00;;;31.30;;
26435;SDS011;15351;52.408;16.826;2024-03-08T05:44:22;52.40;;;30.20;;
26435;SDS011;15351;52.408;16.826;2024-03-08T05:46:49;51.20;;;30.80;;
26435;SDS011;15351;52.408;16.826;2024-03-08T05:49:17;49.80;;;32.00;;
26435;SDS011;15351;52.408;16.826;2024-03-08T05:51:44;51.80;;;31.00;;
26435;SDS011;15351;52.408;16.826;2024-03-08T05:54:11;56.40;;;31.70;;
26435;SDS011;15351;52.408;16.826;2024-03-08T05:56:39;61.70;;;31.90;;
26435;SDS011;15351;52.408;16.826;2024-03-08T05:59:10;52.70;;;31.60;;
26435;SDS011;15351;52.408;16.826;2024-03-08T06:01:37;55.30;;;33.40;;
26435;SDS011;15351;52.408;16.826;2024-03-08T06:04:04;52.60;;;32.30;;
26435;SDS011;15351;52.408;16.826;2024-03-08T06:06:31;52.40;;;31.70;;
26435;SDS011;15351;52.408;16.826;2024-03-08T06:08:58;54.50;;;32.00;;
26435;SDS011;15351;52.408;16.826;2024-03-08T06:11:25;58.40;;;33.80;;
26435;SDS011;15351;52.408;16.826;2024-03-08T06:13:57;53.80;;;33.50;;
26435;SDS011;15351;52.408;16.826;2024-03-08T06:16:26;58.80;;;34.60;;
26435;SDS011;15351;52.408;16.826;2024-03-08T06:18:56;59.00;;;34.20;;
26435;SDS011;15351;52.408;16.826;2024-03-08T06:21:24;59.50;;;35.00;;
26435;SDS011;15351;52.408;16.826;2024-03-08T06:23:53;64.20;;;35.60;;
26435;SDS011;15351;52.408;16.826;2024-03-08T06:26:21;67.50;;;34.90;;
26435;SDS011;15351;52.408;16.826;2024-03-08T06:28:51;64.90;;;36.30;;
26435;SDS011;15351;52.408;16.826;2024-03-08T06:31:18;63.90;;;35.80;;
26435;SDS011;15351;52.408;16.826;2024-03-08T06:33:46;58.50;;;34.90;;
26435;SDS011;15351;52.408;16.826;2024-03-08T06:36:13;64.20;;;36.00;;
26435;SDS011;15351;52.408;16.826;2024-03-08T06:38:39;68.50;;;35.70;;
26435;SDS011;15351;52.408;16.826;2024-03-08T06:41:11;72.60;;;37.00;;
26435;SDS011;15351;52.408;16.826;2024-03-08T06:43:47;69.30;;;37.50;;
26435;SDS011;15351;52.408;16.826;2024-03-08T06:46:18;67.50;;;38.50;;
26435;SDS011;15351;52.408;16.826;2024-03-08T06:48:46;70.20;;;38.70;;
26435;SDS011;15351;52.408;16.826;2024-03-08T06:51:13;64.80;;;38.70;;
26435;SDS011;15351;52.408;16.826;2024-03-08T06:53:40;67.40;;;38.60;;
26435;SDS011;15351;52.408;16.826;2024-03-08T06:56:07;72.60;;;39.80;;
26435;SDS011;15351;52.408;16.826;2024-03-08T06:58:34;76.90;;;41.90;;
26435;SDS011;15351;52.408;16.826;2024-03-08T07:01:01;77.80;;;41.20;;
26435;SDS011;15351;52.408;16.826;2024-03-08T07:03:30;77.30;;;42.30;;
26435;SDS011;15351;52.408;16.826;2024-03-08T07:05:59;85.20;;;41.50;;
26435;SDS011;15351;52.408;16.826;2024-03-08T07:08:25;78.50;;;41.80;;
26435;SDS011;15351;52.408;16.826;2024-03-08T07:10:53;77.60;;;41.20;;
26435;SDS011;15351;52.408;16.826;2024-03-08T07:13:20;75.60;;;41.10;;
26435;SDS011;15351;52.408;16.826;2024-03-08T07:15:50;72.00;;;41.70;;
26435;SDS011;15351;52.408;16.826;2024-03-08T07:18:18;73.40;;;40.50;;
26435;SDS011;15351;52.408;16.826;2024-03-08T07:20:45;68.00;;;40.10;;
26435;SDS011;15351;52.408;16.826;2024-03-08T07:23:12;64.50;;;39.00;;
26435;SDS011;15351;52.408;16.826;2024-03-08T07:25:59;75.00;;;40.00;;
26435;SDS011;15351;52.408;16.826;2024-03-08T07:28:27;77.80;;;40.10;;
26435;SDS011;15351;52.408;16.826;2024-03-08T07:30:54;69.10;;;38.50;;
26435;SDS011;15351;52.408;16.826;2024-03-08T07:33:34;67.50;;;38.70;;
26435;SDS011;15351;52.408;16.826;2024-03-08T07:36:01;62.50;;;37.80;;
26435;SDS011;15351;52.408;16.826;2024-03-08T07:38:27;61.20;;;37.10;;
26435;SDS011;15351;52.408;16.826;2024-03-08T07:40:55;57.60;;;36.60;;
26435;SDS011;15351;52.408;16.826;2024-03-08T07:43:25;59.80;;;37.60;;
26435;SDS011;15351;52.408;16.826;2024-03-08T07:45:52;60.50;;;37.70;;
26435;SDS011;15351;52.408;16.826;2024-03-08T07:48:21;58.60;;;35.50;;
26435;SDS011;15351;52.408;16.826;2024-03-08T07:50:48;57.20;;;36.30;;
26435;SDS011;15351;52.408;16.826;2024-03-08T07:53:16;57.40;;;35.60;;
26435;SDS011;15351;52.408;16.826;2024-03-08T07:55:43;57.30;;;34.40;;
26435;SDS011;15351;52.408;16.826;2024-03-08T07:58:11;61.60;;;34.50;;
26435;SDS011;15351;52.408;16.826;2024-03-08T08:00:40;58.80;;;34.80;;
26435;SDS011;15351;52.408;16.826;2024-03-08T08:03:09;51.40;;;31.40;;
26435;SDS011;15351;52.408;16.826;2024-03-08T08:05:37;54.60;;;32.20;;
26435;SDS011;15351;52.408;16.826;2024-03-08T08:08:05;51.90;;;32.30;;
26435;SDS011;15351;52.408;16.826;2024-03-08T08:10:34;50.10;;;30.70;;
26435;SDS011;15351;52.408;16.826;2024-03-08T08:13:00;46.80;;;30.80;;
26435;SDS011;15351;52.408;16.826;2024-03-08T08:15:27;45.90;;;30.20;;
26435;SDS011;15351;52.408;16.826;2024-03-08T08:17:55;49.60;;;31.40;;
26435;SDS011;15351;52.408;16.826;2024-03-08T08:20:21;48.50;;;30.30;;
26435;SDS011;15351;52.408;16.826;2024-03-08T08:22:49;49.50;;;29.70;;
26435;SDS011;15351;52.408;16.826;2024-03-08T08:25:16;46.10;;;30.30;;
26435;SDS011;15351;52.408;16.826;2024-03-08T08:27:46;54.40;;;29.20;;
26435;SDS011;15351;52.408;16.826;2024-03-08T08:30:13;43.70;;;28.10;;
26435;SDS011;15351;52.408;16.826;2024-03-08T08:32:40;42.50;;;28.80;;
26435;SDS011;15351;52.408;16.826;2024-03-08T08:35:08;40.70;;;27.80;;
26435;SDS011;15351;52.408;16.826;2024-03-08T08:37:38;43.50;;;25.80;;
26435;SDS011;15351;52.408;16.826;2024-03-08T08:40:08;38.50;;;25.40;;
26435;SDS011;15351;52.408;16.826;2024-03-08T08:42:36;35.30;;;23.80;;
26435;SDS011;15351;52.408;16.826;2024-03-08T08:45:05;34.20;;;22.60;;
26435;SDS011;15351;52.408;16.826;2024-03-08T08:47:35;36.70;;;25.20;;
26435;SDS011;15351;52.408;16.826;2024-03-08T08:50:02;35.20;;;23.60;;
26435;SDS011;15351;52.408;16.826;2024-03-08T08:52:31;37.10;;;23.50;;
26435;SDS011;15351;52.408;16.826;2024-03-08T08:54:59;31.90;;;21.00;;
26435;SDS011;15351;52.408;16.826;2024-03-08T08:57:26;26.40;;;19.10;;
26435;SDS011;15351;52.408;16.826;2024-03-08T08:59:54;26.10;;;18.40;;
26435;SDS011;15351;52.408;16.826;2024-03-08T09:02:21;28.50;;;18.70;;
26435;SDS011;15351;52.408;16.826;2024-03-08T09:04:48;26.50;;;18.80;;
26435;SDS011;15351;52.408;16.826;2024-03-08T09:07:15;23.10;;;16.60;;
26435;SDS011;15351;52.408;16.826;2024-03-08T09:09:45;25.00;;;17.40;;
26435;SDS011;15351;52.408;16.826;2024-03-08T09:12:12;26.90;;;17.40;;
26435;SDS011;15351;52.408;16.826;2024-03-08T09:14:40;26.20;;;18.20;;
26435;SDS011;15351;52.408;16.826;2024-03-08T09:17:08;33.40;;;19.50;;
26435;SDS011;15351;52.408;16.826;2024-03-08T09:19:35;28.10;;;18.50;;
26435;SDS011;15351;52.408;16.826;2024-03-08T09:22:03;30.10;;;19.20;;
26435;SDS011;15351;52.408;16.826;2024-03-08T09:24:30;28.10;;;19.60;;
26435;SDS011;15351;52.408;16.826;2024-03-08T09:26:57;28.50;;;18.90;;
26435;SDS011;15351;52.408;16.826;2024-03-08T09:29:27;26.80;;;18.30;;
26435;SDS011;15351;52.408;16.826;2024-03-08T09:31:55;25.80;;;18.20;;
26435;SDS011;15351;52.408;16.826;2024-03-08T09:34:22;25.40;;;17.20;;
26435;SDS011;15351;52.408;16.826;2024-03-08T09:36:49;24.70;;;16.30;;
26435;SDS011;15351;52.408;16.826;2024-03-08T09:39:17;24.20;;;15.80;;
26435;SDS011;15351;52.408;16.826;2024-03-08T13:49:05;19.70;;;12.10;;
26435;SDS011;15351;52.408;16.826;2024-03-08T13:51:37;17.50;;;12.50;;
26435;SDS011;15351;52.408;16.826;2024-03-08T13:54:04;18.40;;;12.80;;
26435;SDS011;15351;52.408;16.826;2024-03-08T13:56:33;17.60;;;12.60;;
26435;SDS011;15351;52.408;16.826;2024-03-08T13:58:59;19.20;;;12.50;;
26435;SDS011;15351;52.408;16.826;2024-03-08T14:01:27;18.90;;;13.50;;
26435;SDS011;15351;52.408;16.826;2024-03-08T14:03:56;18.10;;;12.60;;
26435;SDS011;15351;52.408;16.826;2024-03-08T14:06:23;17.20;;;12.10;;
26435;SDS011;15351;52.408;16.826;2024-03-08T14:08:52;19.00;;;12.60;;
26435;SDS011;15351;52.408;16.826;2024-03-08T14:11:19;17.20;;;12.40;;
26435;SDS011;15351;52.408;16.826;2024-03-08T14:13:47;17.70;;;12.30;;
26435;SDS011;15351;52.408;16.826;2024-03-08T14:16:13;18.00;;;12.60;;
26435;SDS011;15351;52.408;16.826;2024-03-08T14:18:41;18.80;;;12.40;;
26435;SDS011;15351;52.408;16.826;2024-03-08T14:21:08;19.70;;;12.90;;
26435;SDS011;15351;52.408;16.826;2024-03-08T14:23:35;20.50;;;12.60;;
26435;SDS011;15351;52.408;16.826;2024-03-08T14:26:05;18.00;;;12.50;;
26435;SDS011;15351;52.408;16.826;2024-03-08T14:28:33;17.10;;;12.20;;
26435;SDS011;15351;52.408;16.826;2024-03-08T14:31:00;20.50;;;12.00;;
26435;SDS011;15351;52.408;16.826;2024-03-08T14:33:29;18.60;;;11.90;;
26435;SDS011;15351;52.408;16.826;2024-03-08T14:35:56;17.20;;;12.20;;
26435;SDS011;15351;52.408;16.826;2024-03-08T14:38:23;18.10;;;11.90;;
26435;SDS011;15351;52.408;16.826;2024-03-08T14:40:53;17.80;;;12.70;;
26435;SDS011;15351;52.408;16.826;2024-03-08T14:43:21;16.30;;;11.90;;
26435;SDS011;15351;52.408;16.826;2024-03-08T14:45:49;18.40;;;12.90;;
26435;SDS011;15351;52.408;16.826;2024-03-08T14:48:17;22.20;;;12.60;;
26435;SDS011;15351;52.408;16.826;2024-03-08T14:50:43;18.70;;;12.40;;
26435;SDS011;15351;52.408;16.826;2024-03-08T14:53:10;21.20;;;12.90;;
26435;SDS011;15351;52.408;16.826;2024-03-08T14:55:42;18.40;;;12.30;;
26435;SDS011;15351;52.408;16.826;2024-03-08T14:58:09;17.40;;;12.20;;
26435;SDS011;15351;52.408;16.826;2024-03-08T15:00:35;22.10;;;12.40;;
26435;SDS011;15351;52.408;16.826;2024-03-08T15:03:04;15.90;;;11.70;;
26435;SDS011;15351;52.408;16.826;2024-03-08T15:05:33;19.00;;;12.30;;
26435;SDS011;15351;52.408;16.826;2024-03-08T15:08:04;16.10;;;10.60;;
26435;SDS011;15351;52.408;16.826;2024-03-08T15:10:36;13.70;;;10.60;;
26435;SDS011;15351;52.408;16.826;2024-03-08T15:13:03;16.40;;;11.50;;
26435;SDS011;15351;52.408;16.826;2024-03-08T15:15:40;19.20;;;11.90;;
26435;SDS011;15351;52.408;16.826;2024-03-08T15:18:10;17.90;;;11.80;;
26435;SDS011;15351;52.408;16.826;2024-03-08T15:20:38;16.40;;;12.00;;
26435;SDS011;15351;52.408;16.826;2024-03-08T15:23:08;19.10;;;12.10;;
26435;SDS011;15351;52.408;16.826;2024-03-08T15:25:36;18.80;;;12.10;;
26435;SDS011;15351;52.408;16.826;2024-03-08T15:28:05;17.30;;;12.00;;
26435;SDS011;15351;52.408;16.826;2024-03-08T15:30:39;26.40;;;12.10;;
26435;SDS011;15351;52.408;16.826;2024-03-08T15:33:06;17.50;;;12.20;;
26435;SDS011;15351;52.408;16.826;2024-03-08T15:35:42;17.40;;;12.30;;
26435;SDS011;15351;52.408;16.826;2024-03-08T15:38:41;19.70;;;12.60;;
26435;SDS011;15351;52.408;16.826;2024-03-08T15:41:19;18.30;;;13.10;;
26435;SDS011;15351;52.408;16.826;2024-03-08T15:43:47;19.20;;;12.10;;
26435;SDS011;15351;52.408;16.826;2024-03-08T15:46:14;19.40;;;13.30;;
26435;SDS011;15351;52.408;16.826;2024-03-08T15:48:52;19.60;;;14.20;;
26435;SDS011;15351;52.408;16.826;2024-03-08T15:51:23;20.90;;;14.70;;
26435;SDS011;15351;52.408;16.826;2024-03-08T15:53:54;20.50;;;14.00;;
26435;SDS011;15351;52.408;16.826;2024-03-08T15:56:31;18.70;;;13.30;;
26435;SDS011;15351;52.408;16.826;2024-03-08T15:58:58;19.40;;;13.20;;
26435;SDS011;15351;52.408;16.826;2024-03-08T16:01:25;20.60;;;13.60;;
26435;SDS011;15351;52.408;16.826;2024-03-08T16:03:51;19.20;;;13.00;;
26435;SDS011;15351;52.408;16.826;2024-03-08T16:06:19;19.20;;;13.60;;
26435;SDS011;15351;52.408;16.826;2024-03-08T16:08:49;21.30;;;13.60;;
26435;SDS011;15351;52.408;16.826;2024-03-08T16:11:19;21.90;;;14.10;;
26435;SDS011;15351;52.408;16.826;2024-03-08T16:13:47;22.60;;;15.30;;
26435;SDS011;15351;52.408;16.826;2024-03-08T16:16:14;19.70;;;14.00;;
26435;SDS011;15351;52.408;16.826;2024-03-08T16:18:41;20.30;;;14.20;;
26435;SDS011;15351;52.408;16.826;2024-03-08T16:21:08;20.80;;;14.40;;
26435;SDS011;15351;52.408;16.826;2024-03-08T16:23:35;22.60;;;14.90;;
26435;SDS011;15351;52.408;16.826;2024-03-08T16:26:02;22.40;;;15.80;;
26435;SDS011;15351;52.408;16.826;2024-03-08T16:28:31;23.60;;;15.40;;
26435;SDS011;15351;52.408;16.826;2024-03-08T16:31:05;21.50;;;14.90;;
26435;SDS011;15351;52.408;16.826;2024-03-08T16:36:45;22.20;;;15.20;;
26435;SDS011;15351;52.408;16.826;2024-03-08T16:39:15;24.00;;;15.80;;
26435;SDS011;15351;52.408;16.826;2024-03-08T16:41:42;22.50;;;15.30;;
26435;SDS011;15351;52.408;16.826;2024-03-08T16:44:09;23.50;;;15.20;;
26435;SDS011;15351;52.408;16.826;2024-03-08T16:46:36;24.70;;;15.90;;
26435;SDS011;15351;52.408;16.826;2024-03-08T16:49:06;26.40;;;15.80;;
26435;SDS011;15351;52.408;16.826;2024-03-08T16:51:38;25.50;;;16.20;;
26435;SDS011;15351;52.408;16.826;2024-03-08T16:54:06;25.00;;;16.80;;
26435;SDS011;15351;52.408;16.826;2024-03-08T16:56:43;25.30;;;16.80;;
26435;SDS011;15351;52.408;16.826;2024-03-08T16:59:15;24.80;;;16.50;;
26435;SDS011;15351;52.408;16.826;2024-03-08T17:02:06;26.30;;;16.80;;
26435;SDS011;15351;52.408;16.826;2024-03-08T17:04:58;24.90;;;16.80;;
26435;SDS011;15351;52.408;16.826;2024-03-08T17:07:54;26.60;;;16.80;;
26435;SDS011;15351;52.408;16.826;2024-03-08T17:10:27;24.20;;;16.80;;
26435;SDS011;15351;52.408;16.826;2024-03-08T17:12:55;26.20;;;16.90;;
26435;SDS011;15351;52.408;16.826;2024-03-08T17:15:53;25.50;;;16.60;;
26435;SDS011;15351;52.408;16.826;2024-03-08T17:18:19;31.20;;;19.30;;
26435;SDS011;15351;52.408;16.826;2024-03-08T17:20:49;30.30;;;18.40;;
26435;SDS011;15351;52.408;16.826;2024-03-08T17:23:16;28.20;;;19.00;;
26435;SDS011;15351;52.408;16.826;2024-03-08T17:25:44;28.30;;;19.00;;
26435;SDS011;15351;52.408;16.826;2024-03-08T17:28:12;30.30;;;18.60;;
26435;SDS011;15351;52.408;16.826;2024-03-08T17:30:40;29.90;;;19.30;;
26435;SDS011;15351;52.408;16.826;2024-03-08T17:33:19;29.00;;;18.90;;
26435;SDS011;15351;52.408;16.826;2024-03-08T17:35:48;34.90;;;19.30;;
26435;SDS011;15351;52.408;16.826;2024-03-08T17:38:14;31.50;;;18.20;;
26435;SDS011;15351;52.408;16.826;2024-03-08T17:40:45;30.50;;;18.90;;
26435;SDS011;15351;52.408;16.826;2024-03-08T17:43:12;33.60;;;19.80;;
26435;SDS011;15351;52.408;16.826;2024-03-08T17:45:39;33.90;;;19.20;;
26435;SDS011;15351;52.408;16.826;2024-03-08T17:48:07;30.80;;;19.50;;
26435;SDS011;15351;52.408;16.826;2024-03-08T17:50:42;28.60;;;18.90;;
26435;SDS011;15351;52.408;16.826;2024-03-08T17:53:09;28.90;;;19.80;;
26435;SDS011;15351;52.408;16.826;2024-03-08T17:55:37;30.20;;;19.90;;
26435;SDS011;15351;52.408;16.826;2024-03-08T17:58:08;33.30;;;20.70;;
26435;SDS011;15351;52.408;16.826;2024-03-08T18:00:36;33.20;;;21.80;;
26435;SDS011;15351;52.408;16.826;2024-03-08T18:03:04;34.40;;;21.70;;
26435;SDS011;15351;52.408;16.826;2024-03-08T18:05:42;33.00;;;22.00;;
26435;SDS011;15351;52.408;16.826;2024-03-08T18:08:11;33.10;;;22.10;;
26435;SDS011;15351;52.408;16.826;2024-03-08T18:10:38;31.20;;;20.80;;
26435;SDS011;15351;52.408;16.826;2024-03-08T18:13:06;30.30;;;21.80;;
26435;SDS011;15351;52.408;16.826;2024-03-08T18:15:39;30.50;;;20.70;;
26435;SDS011;15351;52.408;16.826;2024-03-08T18:18:06;32.50;;;21.20;;
26435;SDS011;15351;52.408;16.826;2024-03-08T18:20:35;34.70;;;22.30;;
26435;SDS011;15351;52.408;16.826;2024-03-08T18:23:11;35.00;;;23.00;;
26435;SDS011;15351;52.408;16.826;2024-03-08T18:25:41;35.70;;;22.70;;
26435;SDS011;15351;52.408;16.826;2024-03-08T18:28:09;36.70;;;22.90;;
26435;SDS011;15351;52.408;16.826;2024-03-08T18:30:36;38.30;;;22.90;;